sensor_id;sensor_type;location;lat;lon;timestamp;pressure;altitude;pressure_sealevel;temperature;humidity
61136;BME280;47021;51.340;12.432;2023-04-07T00:03:54;100394.34;;;6.73;49.55
61136;BME280;47021;51.340;12.432;2023-04-07T00:06:32;100393.53;;;6.99;49.17
61136;BME280;47021;51.340;12.432;2023-04-07T00:08:57;100386.69;;;6.98;49.18
61136;BME280;47021;51.340;12.432;2023-04-07T00:11:35;100386.25;;;6.92;48.90
61136;BME280;47021;51.340;12.432;2023-04-07T00:16:44;100391.03;;;6.71;49.42
61136;BME280;47021;51.340;12.432;2023-04-07T00:19:09;100384.97;;;6.85;49.13
61136;BME280;47021;51.340;12.432;2023-04-07T00:21:38;100378.38;;;7.06;48.57
61136;BME280;47021;51.340;12.432;2023-04-07T00:24:14;100378.97;;;6.97;48.72
61136;BME280;47021;51.340;12.432;2023-04-07T00:26:40;100383.28;;;6.84;49.28
61136;BME280;47021;51.340;12.432;2023-04-07T00:29:06;100372.47;;;6.77;49.25
61136;BME280;47021;51.340;12.432;2023-04-07T00:31:37;100380.28;;;6.90;49.00
61136;BME280;47021;51.340;12.432;2023-04-07T00:34:02;100376.19;;;6.73;48.87
61136;BME280;47021;51.340;12.432;2023-04-07T00:36:28;100369.78;;;6.79;49.19
61136;BME280;47021;51.340;12.432;2023-04-07T00:39:03;100374.47;;;6.86;48.69
61136;BME280;47021;51.340;12.432;2023-04-07T00:41:29;100364.88;;;7.01;48.13
61136;BME280;47021;51.340;12.432;2023-04-07T00:44:03;100360.50;;;7.01;48.37
61136;BME280;47021;51.340;12.432;2023-04-07T00:46:32;100378.00;;;7.12;48.11
61136;BME280;47021;51.340;12.432;2023-04-07T00:49:03;100363.00;;;6.76;48.72
61136;BME280;47021;51.340;12.432;2023-04-07T00:51:38;100360.72;;;6.98;48.27
61136;BME280;47021;51.340;12.432;2023-04-07T00:54:16;100361.72;;;6.69;49.07
61136;BME280;47021;51.340;12.432;2023-04-07T00:56:56;100354.16;;;6.66;49.17
61136;BME280;47021;51.340;12.432;2023-04-07T00:59:31;100361.53;;;6.72;48.67
61136;BME280;47021;51.340;12.432;2023-04-07T01:02:10;100357.47;;;6.68;48.96
61136;BME280;47021;51.340;12.432;2023-04-07T01:07:16;100355.69;;;6.83;48.62
61136;BME280;47021;51.340;12.432;2023-04-07T01:09:45;100350.91;;;6.63;49.10
61136;BME280;47021;51.340;12.432;2023-04-07T01:14:50;100349.00;;;6.52;49.45
61136;BME280;47021;51.340;12.432;2023-04-07T01:17:18;100347.47;;;6.21;49.89
61136;BME280;47021;51.340;12.432;2023-04-07T01:30:27;100339.47;;;6.53;49.57
61136;BME280;47021;51.340;12.432;2023-04-07T01:32:59;100327.97;;;6.57;49.24
61136;BME280;47021;51.340;12.432;2023-04-07T01:35:42;100329.69;;;6.70;48.70
61136;BME280;47021;51.340;12.432;2023-04-07T01:38:09;100334.63;;;6.61;49.36
61136;BME280;47021;51.340;12.432;2023-04-07T01:43:23;100324.50;;;6.70;48.88
61136;BME280;47021;51.340;12.432;2023-04-07T01:45:55;100321.31;;;6.79;49.04
61136;BME280;47021;51.340;12.432;2023-04-07T01:48:30;100321.59;;;6.48;49.89
61136;BME280;47021;51.340;12.432;2023-04-07T01:50:55;100322.50;;;6.47;50.25
61136;BME280;47021;51.340;12.432;2023-04-07T01:53:27;100327.84;;;6.58;50.01
61136;BME280;47021;51.340;12.432;2023-04-07T01:55:54;100324.78;;;6.39;49.89
61136;BME280;47021;51.340;12.432;2023-04-07T02:01:04;100336.34;;;6.33;50.33
61136;BME280;47021;51.340;12.432;2023-04-07T02:03:53;100321.91;;;6.29;51.91
61136;BME280;47021;51.340;12.432;2023-04-07T02:06:31;100326.50;;;6.12;51.17
61136;BME280;47021;51.340;12.432;2023-04-07T02:08:59;100327.69;;;6.06;51.35
61136;BME280;47021;51.340;12.432;2023-04-07T02:11:26;100326.09;;;6.18;50.94
61136;BME280;47021;51.340;12.432;2023-04-07T02:14:01;100315.63;;;6.19;50.81
61136;BME280;47021;51.340;12.432;2023-04-07T02:16:34;100325.16;;;6.19;51.60
61136;BME280;47021;51.340;12.432;2023-04-07T02:19:01;100319.81;;;6.08;51.94
61136;BME280;47021;51.340;12.432;2023-04-07T02:24:04;100321.19;;;5.99;51.31
61136;BME280;47021;51.340;12.432;2023-04-07T02:31:56;100326.09;;;5.61;52.43
61136;BME280;47021;51.340;12.432;2023-04-07T02:36:56;100322.28;;;5.67;52.37
61136;BME280;47021;51.340;12.432;2023-04-07T02:39:30;100322.16;;;5.84;52.04
61136;BME280;47021;51.340;12.432;2023-04-07T02:42:02;100318.94;;;5.65;52.25
61136;BME280;47021;51.340;12.432;2023-04-07T02:44:35;100317.38;;;5.77;52.54
61136;BME280;47021;51.340;12.432;2023-04-07T02:47:08;100314.41;;;5.68;52.68
61136;BME280;47021;51.340;12.432;2023-04-07T02:49:35;100314.91;;;5.75;52.80
61136;BME280;47021;51.340;12.432;2023-04-07T02:54:49;100321.06;;;5.58;53.50
61136;BME280;47021;51.340;12.432;2023-04-07T02:59:58;100312.03;;;5.65;52.31
61136;BME280;47021;51.340;12.432;2023-04-07T03:02:23;100318.28;;;5.47;53.14
61136;BME280;47021;51.340;12.432;2023-04-07T03:04:58;100321.06;;;5.44;53.34
61136;BME280;47021;51.340;12.432;2023-04-07T03:07:36;100312.09;;;5.64;52.63
61136;BME280;47021;51.340;12.432;2023-04-07T03:10:02;100315.25;;;5.83;52.34
61136;BME280;47021;51.340;12.432;2023-04-07T03:12:29;100315.19;;;5.99;52.01
61136;BME280;47021;51.340;12.432;2023-04-07T03:14:56;100312.31;;;5.89;51.89
61136;BME280;47021;51.340;12.432;2023-04-07T03:17:28;100310.44;;;6.05;51.36
61136;BME280;47021;51.340;12.432;2023-04-07T03:19:53;100301.47;;;6.11;51.22
61136;BME280;47021;51.340;12.432;2023-04-07T03:22:19;100304.63;;;6.02;52.74
61136;BME280;47021;51.340;12.432;2023-04-07T03:24:46;100307.84;;;6.05;52.99
61136;BME280;47021;51.340;12.432;2023-04-07T03:27:13;100310.50;;;5.91;53.48
61136;BME280;47021;51.340;12.432;2023-04-07T03:29:57;100313.59;;;5.96;53.20
61136;BME280;47021;51.340;12.432;2023-04-07T03:32:22;100298.28;;;5.93;53.33
61136;BME280;47021;51.340;12.432;2023-04-07T03:34:55;100299.97;;;5.64;54.01
61136;BME280;47021;51.340;12.432;2023-04-07T03:37:22;100301.28;;;5.57;54.97
61136;BME280;47021;51.340;12.432;2023-04-07T03:42:44;100304.59;;;5.59;54.90
61136;BME280;47021;51.340;12.432;2023-04-07T03:45:11;100306.38;;;5.59;53.95
61136;BME280;47021;51.340;12.432;2023-04-07T03:47:41;100305.59;;;5.57;53.95
61136;BME280;47021;51.340;12.432;2023-04-07T03:52:51;100304.41;;;5.48;54.12
61136;BME280;47021;51.340;12.432;2023-04-07T03:58:00;100310.31;;;5.36;55.05
61136;BME280;47021;51.340;12.432;2023-04-07T04:00:30;100310.13;;;5.39;55.16
61136;BME280;47021;51.340;12.432;2023-04-07T04:03:10;100310.69;;;5.44;54.64
61136;BME280;47021;51.340;12.432;2023-04-07T04:08:31;100309.06;;;5.14;55.22
61136;BME280;47021;51.340;12.432;2023-04-07T04:11:11;100302.75;;;5.04;55.40
61136;BME280;47021;51.340;12.432;2023-04-07T04:13:36;100312.47;;;5.14;55.09
61136;BME280;47021;51.340;12.432;2023-04-07T04:16:12;100309.19;;;4.96;55.17
61136;BME280;47021;51.340;12.432;2023-04-07T04:21:21;100309.72;;;4.87;55.92
61136;BME280;47021;51.340;12.432;2023-04-07T04:23:59;100311.03;;;4.94;55.87
61136;BME280;47021;51.340;12.432;2023-04-07T04:26:29;100304.31;;;4.76;56.01
61136;BME280;47021;51.340;12.432;2023-04-07T04:29:11;100308.69;;;5.06;55.74
61136;BME280;47021;51.340;12.432;2023-04-07T04:31:51;100304.28;;;4.92;55.56
61136;BME280;47021;51.340;12.432;2023-04-07T04:37:04;100311.47;;;4.87;55.75
61136;BME280;47021;51.340;12.432;2023-04-07T04:39:39;100310.84;;;4.97;55.54
61136;BME280;47021;51.340;12.432;2023-04-07T04:42:12;100305.94;;;4.93;54.75
61136;BME280;47021;51.340;12.432;2023-04-07T04:44:38;100308.66;;;4.76;55.30
61136;BME280;47021;51.340;12.432;2023-04-07T04:47:03;100311.22;;;4.91;55.44
61136;BME280;47021;51.340;12.432;2023-04-07T04:52:12;100309.19;;;4.67;56.21
61136;BME280;47021;51.340;12.432;2023-04-07T04:54:52;100309.88;;;4.84;55.24
61136;BME280;47021;51.340;12.432;2023-04-07T04:57:31;100302.88;;;4.86;55.93
61136;BME280;47021;51.340;12.432;2023-04-07T05:02:56;100316.28;;;5.09;55.00
61136;BME280;47021;51.340;12.432;2023-04-07T05:05:23;100313.69;;;4.93;55.54
61136;BME280;47021;51.340;12.432;2023-04-07T05:07:48;100322.19;;;4.81;55.45
61136;BME280;47021;51.340;12.432;2023-04-07T05:10:15;100320.50;;;4.80;55.67
61136;BME280;47021;51.340;12.432;2023-04-07T05:15:28;100320.03;;;5.03;55.39
61136;BME280;47021;51.340;12.432;2023-04-07T05:17:53;100311.09;;;5.09;54.96
61136;BME280;47021;51.340;12.432;2023-04-07T05:20:18;100318.50;;;5.15;55.13
61136;BME280;47021;51.340;12.432;2023-04-07T05:22:45;100319.66;;;5.09;55.10
61136;BME280;47021;51.340;12.432;2023-04-07T05:25:12;100314.25;;;5.28;54.57
61136;BME280;47021;51.340;12.432;2023-04-07T05:27:37;100316.66;;;5.17;54.68
61136;BME280;47021;51.340;12.432;2023-04-07T05:30:02;100316.38;;;5.21;55.19
61136;BME280;47021;51.340;12.432;2023-04-07T05:32:27;100319.38;;;5.29;54.91
61136;BME280;47021;51.340;12.432;2023-04-07T05:34:53;100322.69;;;5.31;54.53
61136;BME280;47021;51.340;12.432;2023-04-07T05:37:19;100322.34;;;5.37;54.38
61136;BME280;47021;51.340;12.432;2023-04-07T05:39:44;100317.50;;;5.17;55.01
61136;BME280;47021;51.340;12.432;2023-04-07T05:42:10;100320.72;;;5.21;55.05
61136;BME280;47021;51.340;12.432;2023-04-07T05:44:42;100323.06;;;5.39;54.73
61136;BME280;47021;51.340;12.432;2023-04-07T05:47:31;100324.84;;;5.53;54.35
61136;BME280;47021;51.340;12.432;2023-04-07T05:50:05;100325.16;;;5.77;54.18
61136;BME280;47021;51.340;12.432;2023-04-07T05:52:30;100325.72;;;5.82;53.70
61136;BME280;47021;51.340;12.432;2023-04-07T05:55:02;100327.28;;;5.56;54.19
61136;BME280;47021;51.340;12.432;2023-04-07T05:57:42;100336.34;;;5.63;54.25
61136;BME280;47021;51.340;12.432;2023-04-07T06:00:09;100336.34;;;5.63;54.42
61136;BME280;47021;51.340;12.432;2023-04-07T06:02:34;100344.28;;;5.60;53.94
61136;BME280;47021;51.340;12.432;2023-04-07T06:05:00;100334.69;;;5.76;53.75
61136;BME280;47021;51.340;12.432;2023-04-07T06:07:26;100329.03;;;5.69;53.91
61136;BME280;47021;51.340;12.432;2023-04-07T06:10:03;100333.81;;;5.91;53.41
61136;BME280;47021;51.340;12.432;2023-04-07T06:12:45;100335.13;;;5.83;52.94
61136;BME280;47021;51.340;12.432;2023-04-07T06:23:31;100332.69;;;5.95;52.96
61136;BME280;47021;51.340;12.432;2023-04-07T06:25:56;100331.13;;;6.07;52.51
61136;BME280;47021;51.340;12.432;2023-04-07T06:28:23;100336.38;;;6.19;52.48
61136;BME280;47021;51.340;12.432;2023-04-07T06:33:47;100330.91;;;6.24;52.44
61136;BME280;47021;51.340;12.432;2023-04-07T06:36:23;100338.69;;;6.10;52.65
61136;BME280;47021;51.340;12.432;2023-04-07T06:39:00;100335.59;;;6.72;51.49
61136;BME280;47021;51.340;12.432;2023-04-07T06:41:25;100329.53;;;6.86;50.52
61136;BME280;47021;51.340;12.432;2023-04-07T06:43:53;100323.13;;;6.91;50.62
61136;BME280;47021;51.340;12.432;2023-04-07T06:46:33;100320.22;;;6.96;50.23
61136;BME280;47021;51.340;12.432;2023-04-07T06:48:58;100333.00;;;6.72;50.71
61136;BME280;47021;51.340;12.432;2023-04-07T06:51:29;100326.38;;;6.81;50.70
61136;BME280;47021;51.340;12.432;2023-04-07T06:54:01;100322.56;;;7.38;49.42
61136;BME280;47021;51.340;12.432;2023-04-07T06:56:26;100316.59;;;7.63;49.03
61136;BME280;47021;51.340;12.432;2023-04-07T06:58:52;100322.59;;;7.76;49.05
61136;BME280;47021;51.340;12.432;2023-04-07T07:01:20;100327.06;;;7.74;48.91
61136;BME280;47021;51.340;12.432;2023-04-07T07:03:48;100323.03;;;7.95;48.73
61136;BME280;47021;51.340;12.432;2023-04-07T07:06:23;100320.91;;;8.00;48.61
61136;BME280;47021;51.340;12.432;2023-04-07T07:08:57;100315.91;;;8.22;48.57
61136;BME280;47021;51.340;12.432;2023-04-07T07:11:29;100320.25;;;8.34;48.35
61136;BME280;47021;51.340;12.432;2023-04-07T07:13:54;100326.19;;;8.36;48.91
61136;BME280;47021;51.340;12.432;2023-04-07T07:18:55;100333.34;;;8.45;49.10
61136;BME280;47021;51.340;12.432;2023-04-07T07:24:16;100331.31;;;8.62;48.76
61136;BME280;47021;51.340;12.432;2023-04-07T07:26:42;100335.59;;;8.86;48.71
61136;BME280;47021;51.340;12.432;2023-04-07T07:29:14;100337.63;;;9.29;47.40
61136;BME280;47021;51.340;12.432;2023-04-07T07:31:41;100333.75;;;8.99;47.62
61136;BME280;47021;51.340;12.432;2023-04-07T07:34:15;100340.50;;;9.37;47.00
61136;BME280;47021;51.340;12.432;2023-04-07T07:36:50;100339.25;;;9.53;47.07
61136;BME280;47021;51.340;12.432;2023-04-07T07:39:22;100338.09;;;9.79;46.17
61136;BME280;47021;51.340;12.432;2023-04-07T07:42:05;100339.28;;;10.09;45.23
61136;BME280;47021;51.340;12.432;2023-04-07T07:44:30;100342.50;;;10.45;44.45
61136;BME280;47021;51.340;12.432;2023-04-07T07:47:11;100343.44;;;10.55;44.34
61136;BME280;47021;51.340;12.432;2023-04-07T07:49:50;100348.69;;;10.44;43.57
61136;BME280;47021;51.340;12.432;2023-04-07T07:52:30;100336.53;;;10.66;42.61
61136;BME280;47021;51.340;12.432;2023-04-07T07:57:37;100347.63;;;10.47;42.00
61136;BME280;47021;51.340;12.432;2023-04-07T08:00:10;100343.94;;;10.49;42.36
61136;BME280;47021;51.340;12.432;2023-04-07T08:02:35;100345.44;;;10.63;41.44
61136;BME280;47021;51.340;12.432;2023-04-07T08:07:53;100342.28;;;11.12;40.60
61136;BME280;47021;51.340;12.432;2023-04-07T08:10:18;100342.38;;;11.63;39.97
61136;BME280;47021;51.340;12.432;2023-04-07T08:12:50;100338.78;;;11.75;39.78
61136;BME280;47021;51.340;12.432;2023-04-07T08:15:22;100344.38;;;11.50;39.86
61136;BME280;47021;51.340;12.432;2023-04-07T08:17:54;100348.97;;;11.98;41.13
61136;BME280;47021;51.340;12.432;2023-04-07T08:23:22;100351.34;;;11.81;39.50
61136;BME280;47021;51.340;12.432;2023-04-07T08:28:46;100356.38;;;11.93;38.64
61136;BME280;47021;51.340;12.432;2023-04-07T08:31:11;100361.13;;;12.39;38.88
61136;BME280;47021;51.340;12.432;2023-04-07T08:33:39;100353.19;;;12.69;38.14
61136;BME280;47021;51.340;12.432;2023-04-07T08:36:10;100356.09;;;12.95;39.60
61136;BME280;47021;51.340;12.432;2023-04-07T08:38:41;100351.31;;;13.48;37.39
61136;BME280;47021;51.340;12.432;2023-04-07T08:43:50;100351.34;;;13.94;36.60
61136;BME280;47021;51.340;12.432;2023-04-07T08:46:24;100351.16;;;14.05;37.27
61136;BME280;47021;51.340;12.432;2023-04-07T08:48:56;100345.56;;;14.28;35.81
61136;BME280;47021;51.340;12.432;2023-04-07T08:56:51;100353.09;;;14.03;36.50
61136;BME280;47021;51.340;12.432;2023-04-07T08:59:20;100355.09;;;14.56;35.74
61136;BME280;47021;51.340;12.432;2023-04-07T09:23:38;100354.69;;;14.24;33.93
61136;BME280;47021;51.340;12.432;2023-04-07T09:31:51;100351.78;;;14.27;33.84
61136;BME280;47021;51.340;12.432;2023-04-07T09:37:24;100345.94;;;15.05;33.80
61136;BME280;47021;51.340;12.432;2023-04-07T09:56:25;100324.69;;;14.80;32.30
61136;BME280;47021;51.340;12.432;2023-04-07T09:59:05;100314.63;;;15.37;30.40
61136;BME280;47021;51.340;12.432;2023-04-07T10:01:31;100319.19;;;15.09;31.16
61136;BME280;47021;51.340;12.432;2023-04-07T10:04:04;100316.59;;;15.17;30.33
61136;BME280;47021;51.340;12.432;2023-04-07T10:06:40;100314.13;;;15.77;30.89
61136;BME280;47021;51.340;12.432;2023-04-07T10:09:06;100315.25;;;15.48;31.41
61136;BME280;47021;51.340;12.432;2023-04-07T10:11:38;100322.44;;;15.64;29.79
61136;BME280;47021;51.340;12.432;2023-04-07T10:14:14;100322.13;;;15.24;32.29
61136;BME280;47021;51.340;12.432;2023-04-07T10:16:39;100320.63;;;16.32;30.64
61136;BME280;47021;51.340;12.432;2023-04-07T10:19:12;100312.75;;;16.40;31.22
61136;BME280;47021;51.340;12.432;2023-04-07T10:21:40;100312.00;;;16.56;29.96
61136;BME280;47021;51.340;12.432;2023-04-07T10:35:02;100317.16;;;15.64;32.88
61136;BME280;47021;51.340;12.432;2023-04-07T10:43:02;100329.78;;;14.64;34.16
61136;BME280;47021;51.340;12.432;2023-04-07T10:48:25;100325.25;;;14.57;34.09
61136;BME280;47021;51.340;12.432;2023-04-07T10:51:32;100327.59;;;14.77;33.77
61136;BME280;47021;51.340;12.432;2023-04-07T10:59:20;100307.31;;;17.16;30.46
61136;BME280;47021;51.340;12.432;2023-04-07T11:01:45;100307.66;;;17.21;29.82
61136;BME280;47021;51.340;12.432;2023-04-07T11:04:11;100310.72;;;16.26;31.33
61136;BME280;47021;51.340;12.432;2023-04-07T11:06:45;100316.16;;;15.04;33.02
61136;BME280;47021;51.340;12.432;2023-04-07T11:09:19;100319.28;;;15.61;32.96
61136;BME280;47021;51.340;12.432;2023-04-07T11:14:29;100318.94;;;15.20;32.38
61136;BME280;47021;51.340;12.432;2023-04-07T11:16:57;100322.63;;;15.71;32.35
61136;BME280;47021;51.340;12.432;2023-04-07T11:19:30;100315.81;;;15.17;32.77
61136;BME280;47021;51.340;12.432;2023-04-07T11:22:14;100320.56;;;15.57;32.69
61136;BME280;47021;51.340;12.432;2023-04-07T11:24:39;100317.53;;;15.26;31.85
61136;BME280;47021;51.340;12.432;2023-04-07T11:32:51;100313.38;;;15.23;32.53
61136;BME280;47021;51.340;12.432;2023-04-07T11:35:23;100319.34;;;15.08;32.94
61136;BME280;47021;51.340;12.432;2023-04-07T11:37:55;100324.56;;;14.72;32.91
61136;BME280;47021;51.340;12.432;2023-04-07T11:40:33;100315.88;;;15.07;31.11
61136;BME280;47021;51.340;12.432;2023-04-07T11:45:42;100309.88;;;15.84;30.67
61136;BME280;47021;51.340;12.432;2023-04-07T11:50:53;100311.72;;;15.22;31.92
61136;BME280;47021;51.340;12.432;2023-04-07T11:53:37;100311.09;;;16.31;30.33
61136;BME280;47021;51.340;12.432;2023-04-07T11:58:49;100308.59;;;16.71;29.57
61136;BME280;47021;51.340;12.432;2023-04-07T12:01:15;100306.50;;;17.31;29.15
61136;BME280;47021;51.340;12.432;2023-04-07T12:03:53;100306.00;;;17.60;28.49
61136;BME280;47021;51.340;12.432;2023-04-07T12:09:06;100314.34;;;16.67;28.71
61136;BME280;47021;51.340;12.432;2023-04-07T12:11:32;100313.78;;;16.13;28.46
61136;BME280;47021;51.340;12.432;2023-04-07T12:22:15;100298.25;;;18.13;27.63
61136;BME280;47021;51.340;12.432;2023-04-07T12:24:41;100301.31;;;17.86;27.67
61136;BME280;47021;51.340;12.432;2023-04-07T12:27:12;100302.47;;;16.13;30.45
61136;BME280;47021;51.340;12.432;2023-04-07T12:29:37;100307.84;;;15.52;31.07
61136;BME280;47021;51.340;12.432;2023-04-07T12:32:14;100303.94;;;15.38;31.34
61136;BME280;47021;51.340;12.432;2023-04-07T12:34:39;100303.84;;;16.33;30.69
61136;BME280;47021;51.340;12.432;2023-04-07T12:37:05;100304.97;;;15.89;31.55
61136;BME280;47021;51.340;12.432;2023-04-07T12:39:38;100309.25;;;15.64;31.05
61136;BME280;47021;51.340;12.432;2023-04-07T12:42:15;100313.78;;;16.13;30.95
61136;BME280;47021;51.340;12.432;2023-04-07T12:44:45;100298.78;;;16.48;29.46
61136;BME280;47021;51.340;12.432;2023-04-07T12:47:13;100304.34;;;16.37;28.74
61136;BME280;47021;51.340;12.432;2023-04-07T12:49:40;100312.09;;;15.96;29.58
61136;BME280;47021;51.340;12.432;2023-04-07T12:52:13;100307.75;;;16.21;29.36
61136;BME280;47021;51.340;12.432;2023-04-07T12:54:38;100301.25;;;16.49;29.85
61136;BME280;47021;51.340;12.432;2023-04-07T13:02:22;100305.78;;;16.57;30.17
61136;BME280;47021;51.340;12.432;2023-04-07T13:04:51;100307.94;;;15.86;30.34
61136;BME280;47021;51.340;12.432;2023-04-07T13:07:18;100297.41;;;17.42;28.99
61136;BME280;47021;51.340;12.432;2023-04-07T13:09:52;100293.13;;;17.41;29.30
61136;BME280;47021;51.340;12.432;2023-04-07T13:20:40;100294.78;;;16.77;29.12
61136;BME280;47021;51.340;12.432;2023-04-07T13:23:23;100295.31;;;16.47;30.08
61136;BME280;47021;51.340;12.432;2023-04-07T13:25:54;100293.63;;;17.36;29.54
61136;BME280;47021;51.340;12.432;2023-04-07T13:30:50;100299.63;;;16.06;30.67
61136;BME280;47021;51.340;12.432;2023-04-07T13:33:20;100296.38;;;16.54;31.25
61136;BME280;47021;51.340;12.432;2023-04-07T13:41:24;100292.47;;;16.99;30.04
61136;BME280;47021;51.340;12.432;2023-04-07T13:43:51;100285.03;;;16.86;30.60
61136;BME280;47021;51.340;12.432;2023-04-07T13:46:22;100283.06;;;17.28;30.21
61136;BME280;47021;51.340;12.432;2023-04-07T13:48:47;100282.81;;;18.25;29.31
61136;BME280;47021;51.340;12.432;2023-04-07T13:51:15;100273.16;;;17.54;29.50
61136;BME280;47021;51.340;12.432;2023-04-07T13:53:41;100276.31;;;16.77;31.12
61136;BME280;47021;51.340;12.432;2023-04-07T13:56:08;100272.34;;;16.89;31.69
61136;BME280;47021;51.340;12.432;2023-04-07T13:58:38;100277.63;;;17.46;30.85
61136;BME280;47021;51.340;12.432;2023-04-07T14:01:13;100265.06;;;17.40;29.47
61136;BME280;47021;51.340;12.432;2023-04-07T14:03:46;100264.59;;;16.88;31.23
61136;BME280;47021;51.340;12.432;2023-04-07T14:06:28;100262.13;;;16.78;31.38
61136;BME280;47021;51.340;12.432;2023-04-07T14:08:55;100268.97;;;16.47;31.34
61136;BME280;47021;51.340;12.432;2023-04-07T14:11:29;100263.09;;;16.69;31.29
61136;BME280;47021;51.340;12.432;2023-04-07T14:13:57;100271.00;;;17.26;30.82
61136;BME280;47021;51.340;12.432;2023-04-07T14:16:28;100274.81;;;16.83;30.77
61136;BME280;47021;51.340;12.432;2023-04-07T14:18:53;100273.66;;;16.69;31.41
61136;BME280;47021;51.340;12.432;2023-04-07T14:21:27;100274.94;;;16.57;30.81
61136;BME280;47021;51.340;12.432;2023-04-07T14:23:52;100276.25;;;16.53;30.64
61136;BME280;47021;51.340;12.432;2023-04-07T14:26:35;100277.06;;;16.04;31.08
61136;BME280;47021;51.340;12.432;2023-04-07T14:29:00;100275.94;;;16.06;31.50
61136;BME280;47021;51.340;12.432;2023-04-07T14:31:28;100272.38;;;16.32;31.68
61136;BME280;47021;51.340;12.432;2023-04-07T14:33:53;100267.38;;;16.62;30.18
61136;BME280;47021;51.340;12.432;2023-04-07T14:39:19;100264.66;;;16.46;30.29
61136;BME280;47021;51.340;12.432;2023-04-07T14:41:45;100268.44;;;15.86;31.09
61136;BME280;47021;51.340;12.432;2023-04-07T14:44:16;100269.19;;;16.12;31.14
61136;BME280;47021;51.340;12.432;2023-04-07T14:46:41;100265.50;;;16.39;30.96
61136;BME280;47021;51.340;12.432;2023-04-07T14:49:18;100264.03;;;16.02;31.18
61136;BME280;47021;51.340;12.432;2023-04-07T14:51:46;100274.25;;;15.97;31.86
61136;BME280;47021;51.340;12.432;2023-04-07T14:54:13;100267.22;;;15.72;31.20
61136;BME280;47021;51.340;12.432;2023-04-07T14:56:38;100271.59;;;15.64;32.71
61136;BME280;47021;51.340;12.432;2023-04-07T14:59:22;100264.81;;;16.37;32.31
61136;BME280;47021;51.340;12.432;2023-04-07T15:01:53;100280.00;;;16.01;32.97
61136;BME280;47021;51.340;12.432;2023-04-07T15:04:23;100272.09;;;16.01;31.75
61136;BME280;47021;51.340;12.432;2023-04-07T15:06:51;100273.34;;;15.89;32.08
61136;BME280;47021;51.340;12.432;2023-04-07T15:09:31;100277.78;;;15.54;32.06
61136;BME280;47021;51.340;12.432;2023-04-07T15:14:40;100273.34;;;15.89;32.29
61136;BME280;47021;51.340;12.432;2023-04-07T15:22:41;100274.25;;;15.97;31.63
61136;BME280;47021;51.340;12.432;2023-04-07T15:25:16;100277.06;;;16.04;31.26
61136;BME280;47021;51.340;12.432;2023-04-07T15:36:13;100278.63;;;15.89;31.31
61136;BME280;47021;51.340;12.432;2023-04-07T15:44:10;100278.47;;;16.32;31.11
61136;BME280;47021;51.340;12.432;2023-04-07T15:46:41;100272.81;;;17.33;29.32
61136;BME280;47021;51.340;12.432;2023-04-07T15:49:25;100274.00;;;16.99;29.62
61136;BME280;47021;51.340;12.432;2023-04-07T15:51:52;100276.13;;;16.87;30.42
61136;BME280;47021;51.340;12.432;2023-04-07T15:54:26;100283.88;;;16.97;30.63
61136;BME280;47021;51.340;12.432;2023-04-07T15:56:52;100277.84;;;16.38;32.47
61136;BME280;47021;51.340;12.432;2023-04-07T15:59:35;100271.75;;;16.38;31.34
61136;BME280;47021;51.340;12.432;2023-04-07T16:02:03;100274.66;;;16.76;30.77
61136;BME280;47021;51.340;12.432;2023-04-07T16:07:12;100286.78;;;16.11;31.18
61136;BME280;47021;51.340;12.432;2023-04-07T16:09:39;100295.16;;;15.47;31.33
61136;BME280;47021;51.340;12.432;2023-04-07T16:12:07;100294.03;;;15.76;31.43
61136;BME280;47021;51.340;12.432;2023-04-07T16:14:48;100296.16;;;15.72;31.34
61136;BME280;47021;51.340;12.432;2023-04-07T16:17:21;100297.44;;;15.68;31.45
61136;BME280;47021;51.340;12.432;2023-04-07T16:19:48;100294.03;;;15.76;31.34
61136;BME280;47021;51.340;12.432;2023-04-07T16:22:14;100298.16;;;15.52;32.26
61136;BME280;47021;51.340;12.432;2023-04-07T16:24:48;100303.19;;;15.03;33.12
61136;BME280;47021;51.340;12.432;2023-04-07T16:27:21;100304.00;;;15.21;33.73
61136;BME280;47021;51.340;12.432;2023-04-07T16:29:53;100306.94;;;15.00;33.58
61136;BME280;47021;51.340;12.432;2023-04-07T16:32:18;100314.44;;;15.30;33.31
61136;BME280;47021;51.340;12.432;2023-04-07T16:34:57;100310.66;;;15.33;33.06
61136;BME280;47021;51.340;12.432;2023-04-07T16:37:23;100317.44;;;13.64;36.87
61136;BME280;47021;51.340;12.432;2023-04-07T16:40:00;100327.88;;;13.08;37.56
61136;BME280;47021;51.340;12.432;2023-04-07T16:42:26;100338.97;;;12.53;38.84
61136;BME280;47021;51.340;12.432;2023-04-07T16:44:54;100336.97;;;13.52;38.28
61136;BME280;47021;51.340;12.432;2023-04-07T16:47:27;100338.25;;;13.75;36.98
61136;BME280;47021;51.340;12.432;2023-04-07T16:52:37;100351.19;;;13.21;36.40
61136;BME280;47021;51.340;12.432;2023-04-07T16:57:46;100353.91;;;13.00;36.47
61136;BME280;47021;51.340;12.432;2023-04-07T17:00:18;100354.66;;;13.21;36.56
61136;BME280;47021;51.340;12.432;2023-04-07T17:02:48;100363.75;;;13.46;35.85
61136;BME280;47021;51.340;12.432;2023-04-07T17:05:13;100363.56;;;13.00;36.48
61136;BME280;47021;51.340;12.432;2023-04-07T17:07:38;100369.41;;;13.13;36.18
61136;BME280;47021;51.340;12.432;2023-04-07T17:10:11;100374.06;;;13.00;36.28
61136;BME280;47021;51.340;12.432;2023-04-07T17:12:39;100367.00;;;12.71;36.80
61136;BME280;47021;51.340;12.432;2023-04-07T17:15:10;100362.84;;;12.69;36.80
61136;BME280;47021;51.340;12.432;2023-04-07T17:17:37;100372.72;;;12.46;36.74
61136;BME280;47021;51.340;12.432;2023-04-07T17:20:02;100374.94;;;12.51;37.24